sensor_id;sensor_type;location;lat;lon;timestamp;P1;durP1;ratioP1;P2;durP2;ratioP2
16543;SDS011;8384;47.996;7.786;2022-12-07T00:01:26;21.83;;;15.93;;
16543;SDS011;8384;47.996;7.786;2022-12-07T00:03:53;24.37;;;17.97;;
16543;SDS011;8384;47.996;7.786;2022-12-07T00:06:29;20.23;;;15.57;;
16543;SDS011;8384;47.996;7.786;2022-12-07T00:08:54;22.10;;;17.17;;
16543;SDS011;8384;47.996;7.786;2022-12-07T00:11:20;22.67;;;15.93;;
16543;SDS011;8384;47.996;7.786;2022-12-07T00:13:47;17.20;;;13.50;;
16543;SDS011;8384;47.996;7.786;2022-12-07T00:16:17;19.00;;;14.93;;
16543;SDS011;8384;47.996;7.786;2022-12-07T00:18:44;16.80;;;13.43;;
16543;SDS011;8384;47.996;7.786;2022-12-07T00:21:11;19.00;;;13.93;;
16543;SDS011;8384;47.996;7.786;2022-12-07T00:23:38;19.37;;;14.73;;
16543;SDS011;8384;47.996;7.786;2022-12-07T00:26:05;21.67;;;14.80;;
16543;SDS011;8384;47.996;7.786;2022-12-07T00:28:35;22.30;;;15.37;;
16543;SDS011;8384;47.996;7.786;2022-12-07T00:31:01;18.90;;;15.50;;
16543;SDS011;8384;47.996;7.786;2022-12-07T00:33:31;20.67;;;16.43;;
16543;SDS011;8384;47.996;7.786;2022-12-07T00:35:58;20.30;;;16.53;;
16543;SDS011;8384;47.996;7.786;2022-12-07T00:38:27;21.23;;;16.33;;
16543;SDS011;8384;47.996;7.786;2022-12-07T00:41:00;19.73;;;15.47;;
16543;SDS011;8384;47.996;7.786;2022-12-07T00:43:27;23.33;;;18.33;;
16543;SDS011;8384;47.996;7.786;2022-12-07T00:45:54;19.17;;;15.00;;
16543;SDS011;8384;47.996;7.786;2022-12-07T00:48:20;19.17;;;15.07;;
16543;SDS011;8384;47.996;7.786;2022-12-07T00:50:45;19.83;;;16.20;;
16543;SDS011;8384;47.996;7.786;2022-12-07T00:53:11;20.43;;;16.47;;
16543;SDS011;8384;47.996;7.786;2022-12-07T00:55:36;20.27;;;15.80;;
16543;SDS011;8384;47.996;7.786;2022-12-07T00:58:02;20.43;;;16.80;;
16543;SDS011;8384;47.996;7.786;2022-12-07T01:00:28;19.60;;;16.07;;
16543;SDS011;8384;47.996;7.786;2022-12-07T01:02:54;19.30;;;16.43;;
16543;SDS011;8384;47.996;7.786;2022-12-07T01:05:19;20.43;;;16.80;;
16543;SDS011;8384;47.996;7.786;2022-12-07T01:07:44;20.63;;;15.80;;
16543;SDS011;8384;47.996;7.786;2022-12-07T01:10:11;21.00;;;17.90;;
16543;SDS011;8384;47.996;7.786;2022-12-07T01:12:36;23.83;;;18.37;;
16543;SDS011;8384;47.996;7.786;2022-12-07T01:15:02;27.87;;;21.57;;
16543;SDS011;8384;47.996;7.786;2022-12-07T01:17:28;28.20;;;21.13;;
16543;SDS011;8384;47.996;7.786;2022-12-07T01:19:53;29.60;;;21.83;;
16543;SDS011;8384;47.996;7.786;2022-12-07T01:22:19;27.77;;;20.17;;
16543;SDS011;8384;47.996;7.786;2022-12-07T01:24:44;27.10;;;20.20;;
16543;SDS011;8384;47.996;7.786;2022-12-07T01:27:11;27.93;;;20.97;;
16543;SDS011;8384;47.996;7.786;2022-12-07T01:29:37;25.07;;;19.50;;
16543;SDS011;8384;47.996;7.786;2022-12-07T01:32:03;30.43;;;22.13;;
16543;SDS011;8384;47.996;7.786;2022-12-07T01:34:29;26.77;;;20.70;;
16543;SDS011;8384;47.996;7.786;2022-12-07T01:36:55;27.07;;;20.50;;
16543;SDS011;8384;47.996;7.786;2022-12-07T01:39:20;26.90;;;20.50;;
16543;SDS011;8384;47.996;7.786;2022-12-07T01:41:46;28.77;;;20.23;;
16543;SDS011;8384;47.996;7.786;2022-12-07T01:44:13;26.10;;;18.70;;
16543;SDS011;8384;47.996;7.786;2022-12-07T01:46:43;27.40;;;19.60;;
16543;SDS011;8384;47.996;7.786;2022-12-07T01:49:14;28.53;;;20.53;;
16543;SDS011;8384;47.996;7.786;2022-12-07T01:51:47;25.03;;;18.00;;
16543;SDS011;8384;47.996;7.786;2022-12-07T01:54:14;24.23;;;17.60;;
16543;SDS011;8384;47.996;7.786;2022-12-07T01:56:42;26.87;;;18.13;;
16543;SDS011;8384;47.996;7.786;2022-12-07T01:59:13;23.93;;;17.40;;
16543;SDS011;8384;47.996;7.786;2022-12-07T02:01:40;27.77;;;19.27;;
16543;SDS011;8384;47.996;7.786;2022-12-07T02:04:06;24.10;;;17.37;;
16543;SDS011;8384;47.996;7.786;2022-12-07T02:06:32;24.17;;;17.73;;
16543;SDS011;8384;47.996;7.786;2022-12-07T02:09:00;24.40;;;17.27;;
16543;SDS011;8384;47.996;7.786;2022-12-07T02:11:26;25.87;;;18.83;;
16543;SDS011;8384;47.996;7.786;2022-12-07T02:13:51;26.00;;;18.30;;
16543;SDS011;8384;47.996;7.786;2022-12-07T02:18:57;28.67;;;18.27;;
16543;SDS011;8384;47.996;7.786;2022-12-07T02:21:46;26.97;;;17.17;;
16543;SDS011;8384;47.996;7.786;2022-12-07T02:24:24;25.80;;;16.37;;
16543;SDS011;8384;47.996;7.786;2022-12-07T02:32:24;21.70;;;13.43;;
16543;SDS011;8384;47.996;7.786;2022-12-07T02:35:06;19.63;;;13.87;;
16543;SDS011;8384;47.996;7.786;2022-12-07T02:37:37;22.30;;;14.33;;
16543;SDS011;8384;47.996;7.786;2022-12-07T02:40:14;20.37;;;14.83;;
16543;SDS011;8384;47.996;7.786;2022-12-07T02:42:47;22.23;;;14.33;;
16543;SDS011;8384;47.996;7.786;2022-12-07T02:45:17;21.03;;;14.63;;
16543;SDS011;8384;47.996;7.786;2022-12-07T02:47:47;20.93;;;14.80;;
16543;SDS011;8384;47.996;7.786;2022-12-07T02:50:17;21.97;;;14.00;;
16543;SDS011;8384;47.996;7.786;2022-12-07T02:52:45;21.67;;;14.47;;
16543;SDS011;8384;47.996;7.786;2022-12-07T02:55:10;23.60;;;14.90;;
16543;SDS011;8384;47.996;7.786;2022-12-07T03:00:27;19.50;;;14.53;;
16543;SDS011;8384;47.996;7.786;2022-12-07T03:10:56;25.37;;;17.20;;
16543;SDS011;8384;47.996;7.786;2022-12-07T03:16:33;24.40;;;16.57;;
16543;SDS011;8384;47.996;7.786;2022-12-07T03:19:10;24.03;;;16.73;;
16543;SDS011;8384;47.996;7.786;2022-12-07T03:21:41;24.03;;;16.40;;
16543;SDS011;8384;47.996;7.786;2022-12-07T03:24:13;24.83;;;17.40;;
16543;SDS011;8384;47.996;7.786;2022-12-07T03:26:47;23.20;;;16.47;;
16543;SDS011;8384;47.996;7.786;2022-12-07T03:29:19;23.43;;;15.40;;
16543;SDS011;8384;47.996;7.786;2022-12-07T03:31:51;22.00;;;16.13;;
16543;SDS011;8384;47.996;7.786;2022-12-07T03:34:29;21.27;;;16.00;;
16543;SDS011;8384;47.996;7.786;2022-12-07T03:37:06;22.40;;;15.67;;
16543;SDS011;8384;47.996;7.786;2022-12-07T03:39:37;21.83;;;15.83;;
16543;SDS011;8384;47.996;7.786;2022-12-07T03:42:10;22.07;;;15.63;;
16543;SDS011;8384;47.996;7.786;2022-12-07T03:44:37;22.17;;;15.40;;
16543;SDS011;8384;47.996;7.786;2022-12-07T03:47:46;21.87;;;15.00;;
16543;SDS011;8384;47.996;7.786;2022-12-07T03:50:02;21.17;;;15.17;;
16543;SDS011;8384;47.996;7.786;2022-12-07T03:52:45;21.83;;;15.80;;
16543;SDS011;8384;47.996;7.786;2022-12-07T03:57:57;21.50;;;15.77;;
16543;SDS011;8384;47.996;7.786;2022-12-07T04:00:27;22.00;;;15.40;;
16543;SDS011;8384;47.996;7.786;2022-12-07T04:02:54;20.90;;;15.73;;
16543;SDS011;8384;47.996;7.786;2022-12-07T04:05:21;20.83;;;15.10;;
16543;SDS011;8384;47.996;7.786;2022-12-07T04:07:46;21.87;;;16.30;;
16543;SDS011;8384;47.996;7.786;2022-12-07T04:10:12;21.80;;;16.23;;
16543;SDS011;8384;47.996;7.786;2022-12-07T04:12:38;21.07;;;16.80;;
16543;SDS011;8384;47.996;7.786;2022-12-07T04:15:04;21.17;;;16.20;;
16543;SDS011;8384;47.996;7.786;2022-12-07T04:17:30;20.17;;;16.13;;
16543;SDS011;8384;47.996;7.786;2022-12-07T04:19:56;23.13;;;17.23;;
16543;SDS011;8384;47.996;7.786;2022-12-07T04:22:22;26.77;;;17.13;;
16543;SDS011;8384;47.996;7.786;2022-12-07T04:24:47;22.87;;;17.10;;
16543;SDS011;8384;47.996;7.786;2022-12-07T04:27:14;25.63;;;17.87;;
16543;SDS011;8384;47.996;7.786;2022-12-07T04:29:39;36.17;;;24.87;;
16543;SDS011;8384;47.996;7.786;2022-12-07T04:32:05;31.20;;;21.03;;
16543;SDS011;8384;47.996;7.786;2022-12-07T04:34:30;27.53;;;19.77;;
16543;SDS011;8384;47.996;7.786;2022-12-07T04:36:57;25.90;;;18.70;;
16543;SDS011;8384;47.996;7.786;2022-12-07T04:39:27;22.90;;;16.33;;
16543;SDS011;8384;47.996;7.786;2022-12-07T04:41:54;20.23;;;15.10;;
16543;SDS011;8384;47.996;7.786;2022-12-07T04:44:21;21.53;;;15.50;;
16543;SDS011;8384;47.996;7.786;2022-12-07T04:46:47;20.87;;;15.60;;
16543;SDS011;8384;47.996;7.786;2022-12-07T04:49:14;20.60;;;16.00;;
16543;SDS011;8384;47.996;7.786;2022-12-07T04:51:40;21.80;;;16.63;;
16543;SDS011;8384;47.996;7.786;2022-12-07T04:54:06;18.77;;;14.97;;
16543;SDS011;8384;47.996;7.786;2022-12-07T04:56:32;17.87;;;14.63;;
16543;SDS011;8384;47.996;7.786;2022-12-07T04:58:59;19.67;;;14.13;;
16543;SDS011;8384;47.996;7.786;2022-12-07T05:01:24;19.37;;;14.80;;
16543;SDS011;8384;47.996;7.786;2022-12-07T05:03:50;19.03;;;14.73;;
16543;SDS011;8384;47.996;7.786;2022-12-07T05:06:15;22.60;;;15.43;;
16543;SDS011;8384;47.996;7.786;2022-12-07T05:08:41;19.50;;;14.87;;
16543;SDS011;8384;47.996;7.786;2022-12-07T05:11:07;20.67;;;15.00;;
16543;SDS011;8384;47.996;7.786;2022-12-07T05:13:34;21.60;;;15.83;;
16543;SDS011;8384;47.996;7.786;2022-12-07T05:16:00;19.00;;;13.83;;
16543;SDS011;8384;47.996;7.786;2022-12-07T05:18:25;17.97;;;14.00;;
16543;SDS011;8384;47.996;7.786;2022-12-07T05:20:51;18.33;;;13.77;;
16543;SDS011;8384;47.996;7.786;2022-12-07T05:23:17;17.70;;;13.30;;
16543;SDS011;8384;47.996;7.786;2022-12-07T05:25:43;19.73;;;13.93;;
16543;SDS011;8384;47.996;7.786;2022-12-07T05:28:08;16.87;;;12.70;;
16543;SDS011;8384;47.996;7.786;2022-12-07T05:30:34;16.10;;;13.30;;
16543;SDS011;8384;47.996;7.786;2022-12-07T05:32:59;16.40;;;12.70;;
16543;SDS011;8384;47.996;7.786;2022-12-07T05:35:24;20.00;;;13.93;;
16543;SDS011;8384;47.996;7.786;2022-12-07T05:37:50;21.30;;;14.93;;
16543;SDS011;8384;47.996;7.786;2022-12-07T05:40:15;19.80;;;14.17;;
16543;SDS011;8384;47.996;7.786;2022-12-07T05:42:41;19.70;;;14.30;;
16543;SDS011;8384;47.996;7.786;2022-12-07T05:45:07;19.33;;;13.80;;
16543;SDS011;8384;47.996;7.786;2022-12-07T05:47:33;18.80;;;13.40;;
16543;SDS011;8384;47.996;7.786;2022-12-07T05:49:59;17.63;;;12.03;;
16543;SDS011;8384;47.996;7.786;2022-12-07T05:52:24;17.07;;;11.30;;
16543;SDS011;8384;47.996;7.786;2022-12-07T05:54:49;12.60;;;9.33;;
16543;SDS011;8384;47.996;7.786;2022-12-07T05:57:15;11.60;;;8.00;;
16543;SDS011;8384;47.996;7.786;2022-12-07T05:59:41;8.30;;;6.53;;
16543;SDS011;8384;47.996;7.786;2022-12-07T06:02:07;9.40;;;7.17;;
16543;SDS011;8384;47.996;7.786;2022-12-07T06:04:41;7.13;;;5.50;;
16543;SDS011;8384;47.996;7.786;2022-12-07T06:07:08;7.27;;;5.50;;
16543;SDS011;8384;47.996;7.786;2022-12-07T06:09:34;9.33;;;7.00;;
16543;SDS011;8384;47.996;7.786;2022-12-07T06:12:00;7.20;;;6.10;;
16543;SDS011;8384;47.996;7.786;2022-12-07T06:14:44;9.03;;;6.80;;
16543;SDS011;8384;47.996;7.786;2022-12-07T06:17:10;8.80;;;6.67;;
16543;SDS011;8384;47.996;7.786;2022-12-07T06:19:37;9.87;;;6.37;;
16543;SDS011;8384;47.996;7.786;2022-12-07T06:22:03;10.30;;;6.43;;
16543;SDS011;8384;47.996;7.786;2022-12-07T06:24:29;9.37;;;6.37;;
16543;SDS011;8384;47.996;7.786;2022-12-07T06:26:55;8.63;;;6.63;;
16543;SDS011;8384;47.996;7.786;2022-12-07T06:29:21;8.80;;;6.60;;
16543;SDS011;8384;47.996;7.786;2022-12-07T06:31:47;9.10;;;6.57;;
16543;SDS011;8384;47.996;7.786;2022-12-07T06:34:13;9.50;;;6.77;;
16543;SDS011;8384;47.996;7.786;2022-12-07T06:36:40;7.27;;;6.20;;
16543;SDS011;8384;47.996;7.786;2022-12-07T06:39:06;8.80;;;6.27;;
16543;SDS011;8384;47.996;7.786;2022-12-07T06:41:33;11.07;;;6.50;;
16543;SDS011;8384;47.996;7.786;2022-12-07T06:43:59;8.93;;;6.50;;
16543;SDS011;8384;47.996;7.786;2022-12-07T06:46:24;8.53;;;6.90;;
16543;SDS011;8384;47.996;7.786;2022-12-07T06:48:50;12.20;;;8.77;;
16543;SDS011;8384;47.996;7.786;2022-12-07T06:51:15;14.53;;;10.37;;
16543;SDS011;8384;47.996;7.786;2022-12-07T06:53:41;17.30;;;11.90;;
16543;SDS011;8384;47.996;7.786;2022-12-07T06:56:06;16.00;;;11.90;;
16543;SDS011;8384;47.996;7.786;2022-12-07T06:58:32;19.17;;;13.93;;
16543;SDS011;8384;47.996;7.786;2022-12-07T07:00:57;17.37;;;12.40;;
16543;SDS011;8384;47.996;7.786;2022-12-07T07:03:22;21.43;;;14.57;;
16543;SDS011;8384;47.996;7.786;2022-12-07T07:05:48;20.23;;;14.70;;
16543;SDS011;8384;47.996;7.786;2022-12-07T07:08:13;20.53;;;14.00;;
16543;SDS011;8384;47.996;7.786;2022-12-07T07:10:39;25.27;;;13.50;;
16543;SDS011;8384;47.996;7.786;2022-12-07T07:13:06;24.60;;;15.77;;
16543;SDS011;8384;47.996;7.786;2022-12-07T07:15:32;20.27;;;14.87;;
16543;SDS011;8384;47.996;7.786;2022-12-07T07:17:57;86.87;;;16.83;;
16543;SDS011;8384;47.996;7.786;2022-12-07T07:20:22;80.67;;;18.47;;
16543;SDS011;8384;47.996;7.786;2022-12-07T07:22:48;120.27;;;19.67;;
16543;SDS011;8384;47.996;7.786;2022-12-07T07:25:14;87.50;;;18.10;;
16543;SDS011;8384;47.996;7.786;2022-12-07T07:27:39;106.13;;;19.03;;
16543;SDS011;8384;47.996;7.786;2022-12-07T07:30:05;50.77;;;17.27;;
16543;SDS011;8384;47.996;7.786;2022-12-07T07:32:31;28.83;;;16.33;;
16543;SDS011;8384;47.996;7.786;2022-12-07T07:34:56;24.30;;;15.93;;
16543;SDS011;8384;47.996;7.786;2022-12-07T07:37:21;21.33;;;14.83;;
16543;SDS011;8384;47.996;7.786;2022-12-07T07:39:47;22.50;;;14.97;;
16543;SDS011;8384;47.996;7.786;2022-12-07T07:42:12;24.23;;;15.10;;
16543;SDS011;8384;47.996;7.786;2022-12-07T07:44:37;30.07;;;20.90;;
16543;SDS011;8384;47.996;7.786;2022-12-07T07:47:03;27.70;;;18.93;;
16543;SDS011;8384;47.996;7.786;2022-12-07T07:49:28;25.80;;;17.20;;
16543;SDS011;8384;47.996;7.786;2022-12-07T07:51:53;25.10;;;16.63;;
16543;SDS011;8384;47.996;7.786;2022-12-07T07:54:18;25.30;;;14.97;;
16543;SDS011;8384;47.996;7.786;2022-12-07T07:56:44;23.70;;;15.73;;
16543;SDS011;8384;47.996;7.786;2022-12-07T07:59:09;25.73;;;16.20;;
16543;SDS011;8384;47.996;7.786;2022-12-07T08:01:34;24.87;;;15.93;;
16543;SDS011;8384;47.996;7.786;2022-12-07T08:04:00;23.17;;;16.30;;
16543;SDS011;8384;47.996;7.786;2022-12-07T08:06:25;26.27;;;16.07;;
16543;SDS011;8384;47.996;7.786;2022-12-07T08:08:51;26.07;;;15.00;;
16543;SDS011;8384;47.996;7.786;2022-12-07T08:11:16;22.73;;;16.47;;
16543;SDS011;8384;47.996;7.786;2022-12-07T08:13:42;24.87;;;15.97;;
16543;SDS011;8384;47.996;7.786;2022-12-07T08:16:11;22.47;;;16.03;;
16543;SDS011;8384;47.996;7.786;2022-12-07T08:18:37;21.60;;;15.60;;
16543;SDS011;8384;47.996;7.786;2022-12-07T08:21:04;20.67;;;15.07;;
16543;SDS011;8384;47.996;7.786;2022-12-07T08:23:31;21.97;;;15.23;;
16543;SDS011;8384;47.996;7.786;2022-12-07T08:26:00;19.77;;;14.10;;
16543;SDS011;8384;47.996;7.786;2022-12-07T08:28:27;22.27;;;14.63;;
16543;SDS011;8384;47.996;7.786;2022-12-07T08:30:58;20.57;;;15.23;;
16543;SDS011;8384;47.996;7.786;2022-12-07T08:33:24;23.90;;;16.07;;
16543;SDS011;8384;47.996;7.786;2022-12-07T08:35:50;22.63;;;16.27;;
16543;SDS011;8384;47.996;7.786;2022-12-07T08:38:15;22.83;;;15.73;;
16543;SDS011;8384;47.996;7.786;2022-12-07T08:40:40;19.03;;;15.03;;
16543;SDS011;8384;47.996;7.786;2022-12-07T08:43:05;19.60;;;14.43;;
16543;SDS011;8384;47.996;7.786;2022-12-07T08:45:31;21.37;;;15.27;;
16543;SDS011;8384;47.996;7.786;2022-12-07T08:48:02;20.67;;;15.17;;
16543;SDS011;8384;47.996;7.786;2022-12-07T08:50:33;20.10;;;14.30;;
16543;SDS011;8384;47.996;7.786;2022-12-07T08:53:00;16.30;;;13.20;;
16543;SDS011;8384;47.996;7.786;2022-12-07T08:55:27;17.03;;;12.97;;
16543;SDS011;8384;47.996;7.786;2022-12-07T08:57:54;17.73;;;12.47;;
16543;SDS011;8384;47.996;7.786;2022-12-07T09:00:20;14.33;;;11.53;;
16543;SDS011;8384;47.996;7.786;2022-12-07T09:02:45;16.13;;;12.77;;
16543;SDS011;8384;47.996;7.786;2022-12-07T09:05:11;15.97;;;11.93;;
16543;SDS011;8384;47.996;7.786;2022-12-07T09:07:39;16.27;;;11.87;;
16543;SDS011;8384;47.996;7.786;2022-12-07T09:10:07;17.07;;;12.07;;
16543;SDS011;8384;47.996;7.786;2022-12-07T09:12:33;17.00;;;12.77;;
16543;SDS011;8384;47.996;7.786;2022-12-07T09:14:59;14.27;;;11.23;;
16543;SDS011;8384;47.996;7.786;2022-12-07T09:17:25;14.63;;;12.13;;
16543;SDS011;8384;47.996;7.786;2022-12-07T09:19:51;14.63;;;11.93;;
16543;SDS011;8384;47.996;7.786;2022-12-07T09:22:16;13.17;;;11.10;;
16543;SDS011;8384;47.996;7.786;2022-12-07T09:24:42;14.17;;;11.50;;
16543;SDS011;8384;47.996;7.786;2022-12-07T09:27:08;15.73;;;11.53;;
16543;SDS011;8384;47.996;7.786;2022-12-07T09:29:33;11.43;;;9.50;;
16543;SDS011;8384;47.996;7.786;2022-12-07T09:31:58;11.40;;;9.40;;
16543;SDS011;8384;47.996;7.786;2022-12-07T09:34:24;11.50;;;9.80;;
16543;SDS011;8384;47.996;7.786;2022-12-07T09:36:50;11.67;;;9.50;;
16543;SDS011;8384;47.996;7.786;2022-12-07T09:39:15;11.20;;;9.63;;
16543;SDS011;8384;47.996;7.786;2022-12-07T09:41:41;11.13;;;9.50;;
16543;SDS011;8384;47.996;7.786;2022-12-07T09:44:13;10.43;;;9.33;;
16543;SDS011;8384;47.996;7.786;2022-12-07T09:46:42;10.23;;;9.20;;
16543;SDS011;8384;47.996;7.786;2022-12-07T09:49:10;9.90;;;8.90;;
16543;SDS011;8384;47.996;7.786;2022-12-07T09:51:39;9.93;;;8.67;;
16543;SDS011;8384;47.996;7.786;2022-12-07T09:54:04;10.47;;;9.30;;
16543;SDS011;8384;47.996;7.786;2022-12-07T09:56:30;11.47;;;9.20;;
16543;SDS011;8384;47.996;7.786;2022-12-07T09:58:58;12.33;;;9.63;;
16543;SDS011;8384;47.996;7.786;2022-12-07T10:01:27;10.90;;;9.13;;
16543;SDS011;8384;47.996;7.786;2022-12-07T10:03:55;10.03;;;9.03;;
16543;SDS011;8384;47.996;7.786;2022-12-07T10:06:26;10.27;;;9.17;;
16543;SDS011;8384;47.996;7.786;2022-12-07T10:08:52;11.23;;;9.37;;
16543;SDS011;8384;47.996;7.786;2022-12-07T10:11:17;10.73;;;9.00;;
16543;SDS011;8384;47.996;7.786;2022-12-07T10:13:44;9.43;;;8.50;;
16543;SDS011;8384;47.996;7.786;2022-12-07T10:16:35;10.20;;;8.50;;
16543;SDS011;8384;47.996;7.786;2022-12-07T10:19:19;12.07;;;9.23;;
16543;SDS011;8384;47.996;7.786;2022-12-07T10:22:02;11.17;;;8.93;;
16543;SDS011;8384;47.996;7.786;2022-12-07T10:24:28;9.13;;;8.13;;
16543;SDS011;8384;47.996;7.786;2022-12-07T10:26:53;10.00;;;7.67;;
16543;SDS011;8384;47.996;7.786;2022-12-07T10:29:24;8.10;;;7.30;;
16543;SDS011;8384;47.996;7.786;2022-12-07T10:34:25;9.53;;;6.73;;
16543;SDS011;8384;47.996;7.786;2022-12-07T10:36:54;8.03;;;7.23;;
16543;SDS011;8384;47.996;7.786;2022-12-07T10:39:43;8.33;;;7.30;;
16543;SDS011;8384;47.996;7.786;2022-12-07T10:42:18;8.30;;;7.53;;
16543;SDS011;8384;47.996;7.786;2022-12-07T10:44:43;8.07;;;7.23;;
16543;SDS011;8384;47.996;7.786;2022-12-07T10:47:14;6.97;;;6.30;;
16543;SDS011;8384;47.996;7.786;2022-12-07T11:01:32;7.70;;;6.90;;
16543;SDS011;8384;47.996;7.786;2022-12-07T11:03:53;6.40;;;5.80;;
16543;SDS011;8384;47.996;7.786;2022-12-07T11:09:47;7.07;;;5.80;;
16543;SDS011;8384;47.996;7.786;2022-12-07T11:15:01;7.97;;;6.50;;
16543;SDS011;8384;47.996;7.786;2022-12-07T11:20:41;7.20;;;6.33;;
16543;SDS011;8384;47.996;7.786;2022-12-07T11:28:47;7.57;;;6.83;;
16543;SDS011;8384;47.996;7.786;2022-12-07T11:31:41;6.43;;;5.80;;
16543;SDS011;8384;47.996;7.786;2022-12-07T11:35:01;6.37;;;5.77;;
16543;SDS011;8384;47.996;7.786;2022-12-07T11:37:21;7.03;;;6.33;;
16543;SDS011;8384;47.996;7.786;2022-12-07T11:39:54;7.40;;;6.40;;
16543;SDS011;8384;47.996;7.786;2022-12-07T11:42:26;6.60;;;5.77;;
16543;SDS011;8384;47.996;7.786;2022-12-07T11:45:10;6.60;;;6.00;;
16543;SDS011;8384;47.996;7.786;2022-12-07T11:47:47;6.40;;;5.80;;
16543;SDS011;8384;47.996;7.786;2022-12-07T11:53:33;6.80;;;6.20;;
16543;SDS011;8384;47.996;7.786;2022-12-07T12:06:39;7.30;;;5.93;;
16543;SDS011;8384;47.996;7.786;2022-12-07T12:11:51;6.10;;;5.50;;
16543;SDS011;8384;47.996;7.786;2022-12-07T12:19:59;5.20;;;4.60;;
16543;SDS011;8384;47.996;7.786;2022-12-07T12:22:39;5.97;;;5.10;;
16543;SDS011;8384;47.996;7.786;2022-12-07T12:25:13;5.87;;;5.27;;
16543;SDS011;8384;47.996;7.786;2022-12-07T12:27:46;5.53;;;5.00;;
16543;SDS011;8384;47.996;7.786;2022-12-07T12:33:02;4.60;;;3.80;;
16543;SDS011;8384;47.996;7.786;2022-12-07T12:35:31;4.53;;;3.43;;
16543;SDS011;8384;47.996;7.786;2022-12-07T12:40:55;4.50;;;4.10;;
16543;SDS011;8384;47.996;7.786;2022-12-07T12:43:40;3.90;;;3.03;;
16543;SDS011;8384;47.996;7.786;2022-12-07T12:48:55;4.50;;;4.00;;
16543;SDS011;8384;47.996;7.786;2022-12-07T12:51:59;4.07;;;3.67;;
16543;SDS011;8384;47.996;7.786;2022-12-07T12:54:57;4.13;;;3.73;;
16543;SDS011;8384;47.996;7.786;2022-12-07T12:57:27;3.30;;;3.00;;
16543;SDS011;8384;47.996;7.786;2022-12-07T13:04:58;3.70;;;3.40;;
16543;SDS011;8384;47.996;7.786;2022-12-07T13:13:03;3.50;;;3.20;;
16543;SDS011;8384;47.996;7.786;2022-12-07T13:15:36;3.50;;;3.20;;
16543;SDS011;8384;47.996;7.786;2022-12-07T13:21:02;3.40;;;3.10;;
16543;SDS011;8384;47.996;7.786;2022-12-07T13:23:57;3.57;;;3.23;;
16543;SDS011;8384;47.996;7.786;2022-12-07T13:34:27;3.60;;;3.30;;
16543;SDS011;8384;47.996;7.786;2022-12-07T13:37:10;4.77;;;3.60;;
16543;SDS011;8384;47.996;7.786;2022-12-07T13:39:47;5.13;;;4.10;;
16543;SDS011;8384;47.996;7.786;2022-12-07T13:42:31;4.27;;;3.80;;
16543;SDS011;8384;47.996;7.786;2022-12-07T13:45:00;4.83;;;4.33;;
16543;SDS011;8384;47.996;7.786;2022-12-07T13:47:49;4.80;;;4.30;;
16543;SDS011;8384;47.996;7.786;2022-12-07T13:50:26;6.20;;;4.60;;
16543;SDS011;8384;47.996;7.786;2022-12-07T13:52:59;4.77;;;4.13;;
16543;SDS011;8384;47.996;7.786;2022-12-07T13:55:26;4.70;;;4.20;;
16543;SDS011;8384;47.996;7.786;2022-12-07T13:57:54;4.73;;;4.17;;
16543;SDS011;8384;47.996;7.786;2022-12-07T14:00:21;4.43;;;3.90;;
16543;SDS011;8384;47.996;7.786;2022-12-07T14:05:31;4.60;;;4.10;;
16543;SDS011;8384;47.996;7.786;2022-12-07T14:07:59;3.70;;;3.40;;
16543;SDS011;8384;47.996;7.786;2022-12-07T14:11:13;3.47;;;3.17;;
16543;SDS011;8384;47.996;7.786;2022-12-07T14:13:34;3.90;;;3.60;;
16543;SDS011;8384;47.996;7.786;2022-12-07T14:16:01;2.90;;;2.60;;
16543;SDS011;8384;47.996;7.786;2022-12-07T14:18:29;3.40;;;3.10;;
16543;SDS011;8384;47.996;7.786;2022-12-07T14:21:02;4.13;;;3.73;;
16543;SDS011;8384;47.996;7.786;2022-12-07T14:23:28;4.37;;;3.30;;
16543;SDS011;8384;47.996;7.786;2022-12-07T14:26:03;4.97;;;4.20;;
16543;SDS011;8384;47.996;7.786;2022-12-07T14:28:35;3.87;;;3.47;;
16543;SDS011;8384;47.996;7.786;2022-12-07T14:31:02;4.77;;;4.00;;
16543;SDS011;8384;47.996;7.786;2022-12-07T14:33:28;6.73;;;5.40;;
16543;SDS011;8384;47.996;7.786;2022-12-07T14:35:54;5.10;;;4.60;;
16543;SDS011;8384;47.996;7.786;2022-12-07T14:38:24;4.27;;;3.87;;
16543;SDS011;8384;47.996;7.786;2022-12-07T14:40:51;6.20;;;4.93;;
16543;SDS011;8384;47.996;7.786;2022-12-07T14:43:18;5.60;;;4.73;;
16543;SDS011;8384;47.996;7.786;2022-12-07T14:45:44;5.77;;;4.80;;
16543;SDS011;8384;47.996;7.786;2022-12-07T14:48:14;5.90;;;5.30;;
16543;SDS011;8384;47.996;7.786;2022-12-07T14:50:42;6.93;;;5.17;;
16543;SDS011;8384;47.996;7.786;2022-12-07T14:53:14;7.67;;;5.83;;
16543;SDS011;8384;47.996;7.786;2022-12-07T14:55:41;6.27;;;5.60;;
16543;SDS011;8384;47.996;7.786;2022-12-07T14:58:16;7.23;;;6.47;;
16543;SDS011;8384;47.996;7.786;2022-12-07T15:00:42;7.57;;;6.37;;
16543;SDS011;8384;47.996;7.786;2022-12-07T15:03:08;6.37;;;5.70;;
16543;SDS011;8384;47.996;7.786;2022-12-07T15:05:33;7.20;;;6.37;;
16543;SDS011;8384;47.996;7.786;2022-12-07T15:07:59;8.20;;;6.13;;
16543;SDS011;8384;47.996;7.786;2022-12-07T15:10:26;7.43;;;6.20;;
16543;SDS011;8384;47.996;7.786;2022-12-07T15:12:55;24.97;;;14.57;;
16543;SDS011;8384;47.996;7.786;2022-12-07T15:15:41;25.77;;;15.07;;
16543;SDS011;8384;47.996;7.786;2022-12-07T15:18:09;21.10;;;14.67;;
16543;SDS011;8384;47.996;7.786;2022-12-07T15:20:34;15.23;;;10.73;;
16543;SDS011;8384;47.996;7.786;2022-12-07T15:22:59;9.27;;;8.00;;
16543;SDS011;8384;47.996;7.786;2022-12-07T15:25:25;8.47;;;7.20;;
16543;SDS011;8384;47.996;7.786;2022-12-07T15:27:50;9.73;;;7.00;;
16543;SDS011;8384;47.996;7.786;2022-12-07T15:30:15;9.83;;;7.17;;
16543;SDS011;8384;47.996;7.786;2022-12-07T15:32:41;10.27;;;7.37;;
16543;SDS011;8384;47.996;7.786;2022-12-07T15:35:06;9.23;;;6.40;;
16543;SDS011;8384;47.996;7.786;2022-12-07T15:37:32;8.77;;;7.07;;
16543;SDS011;8384;47.996;7.786;2022-12-07T15:39:57;11.23;;;7.80;;
16543;SDS011;8384;47.996;7.786;2022-12-07T15:42:22;11.90;;;7.67;;
16543;SDS011;8384;47.996;7.786;2022-12-07T15:44:48;9.07;;;7.13;;
16543;SDS011;8384;47.996;7.786;2022-12-07T15:47:28;12.33;;;8.47;;
16543;SDS011;8384;47.996;7.786;2022-12-07T15:49:54;9.90;;;7.50;;
16543;SDS011;8384;47.996;7.786;2022-12-07T15:52:19;9.97;;;7.70;;
16543;SDS011;8384;47.996;7.786;2022-12-07T15:54:45;12.03;;;7.90;;
16543;SDS011;8384;47.996;7.786;2022-12-07T15:57:14;10.73;;;8.13;;
16543;SDS011;8384;47.996;7.786;2022-12-07T15:59:39;9.00;;;7.57;;
16543;SDS011;8384;47.996;7.786;2022-12-07T16:02:05;11.13;;;8.53;;
16543;SDS011;8384;47.996;7.786;2022-12-07T16:04:30;9.30;;;7.53;;
16543;SDS011;8384;47.996;7.786;2022-12-07T16:06:56;9.90;;;7.77;;
16543;SDS011;8384;47.996;7.786;2022-12-07T16:09:21;9.03;;;7.73;;
16543;SDS011;8384;47.996;7.786;2022-12-07T16:11:47;9.93;;;7.93;;
16543;SDS011;8384;47.996;7.786;2022-12-07T16:14:12;11.27;;;7.67;;
16543;SDS011;8384;47.996;7.786;2022-12-07T16:16:38;10.33;;;7.80;;
16543;SDS011;8384;47.996;7.786;2022-12-07T16:19:05;10.20;;;7.83;;
16543;SDS011;8384;47.996;7.786;2022-12-07T16:21:30;9.40;;;7.77;;
16543;SDS011;8384;47.996;7.786;2022-12-07T16:23:57;10.37;;;8.57;;
16543;SDS011;8384;47.996;7.786;2022-12-07T16:26:23;10.80;;;8.10;;
16543;SDS011;8384;47.996;7.786;2022-12-07T16:28:49;10.87;;;9.07;;
16543;SDS011;8384;47.996;7.786;2022-12-07T16:31:16;10.97;;;7.70;;
16543;SDS011;8384;47.996;7.786;2022-12-07T16:33:45;10.43;;;8.10;;
16543;SDS011;8384;47.996;7.786;2022-12-07T16:36:11;10.77;;;7.63;;
16543;SDS011;8384;47.996;7.786;2022-12-07T16:38:39;13.50;;;9.27;;
16543;SDS011;8384;47.996;7.786;2022-12-07T16:41:05;12.83;;;9.90;;
16543;SDS011;8384;47.996;7.786;2022-12-07T16:43:31;11.17;;;8.90;;